Fishing Creek, Maryland
Current Conditions -  °F | °C
As of 2:52 PM on Wednesday 26 Nov 2014 (Local Time) from KNHK Reporting Station
Light Rain Light Rain  
Wind Chill: 30°   Ceiling: 800
Heat Index: 40°   Visibility: 10mi
Dew Point: 37°   Wind: 20mph
Humidity: 89%   Direction: 350°N
Pressure: 29.8"   Gusts: NA
Location:  38.31°N, 76.23°W
Report Text: KNHK 261952Z 35017KT 10SM -RA BKN008 OVC012 04/03 A2980 RMK AO2 SLP091 P0003 T00440028
Loading
Personal Weather Stations






























Interactive Weather Map New forecast layout! Learn more

10-Day Weather Forecast

Advertisements
Track Severe Weather on mobile